Time;durP1;ratioP1;P1;durP2;ratioP2;P2;SDS_P1;SDS_P2;PMS_P1;PMS_P2;Temp;Humidity;BMP_temperature;BMP_pressure;BME280_temperature;BME280_humidity;BME280_pressure;Samples;Min_cycle;Max_cycle;Signal;HPM_P1;HPM_P2
2023/05/06 00:00:18;;;;;;;0.30;0.30;;;11.90;1.00;;;;;;5021484;28;20430;-73
2023/05/06 00:02:48;;;;;;;1.10;0.30;;;11.80;1.00;;;;;;5019510;28;20439;-73
2023/05/06 00:05:17;;;;;;;0.20;0.20;;;11.90;1.00;;;;;;5023857;28;20438;-73
2023/05/06 00:07:45;;;;;;;0.30;0.30;;;11.80;1.00;;;;;;5022919;28;20435;-73
2023/05/06 00:10:12;;;;;;;0.17;0.17;;;11.80;1.00;;;;;;5022420;28;20517;-73
2023/05/06 00:12:38;;;;;;;0.43;0.43;;;11.70;1.00;;;;;;5021156;28;20444;-73
2023/05/06 00:15:06;;;;;;;0.38;0.38;;;11.70;1.00;;;;;;5021549;28;20441;-73
2023/05/06 00:17:33;;;;;;;1.00;0.40;;;11.60;1.00;;;;;;5019501;28;20438;-73
2023/05/06 00:20:00;;;;;;;0.30;0.30;;;11.50;1.00;;;;;;5023179;28;20443;-73
2023/05/06 00:22:27;;;;;;;0.25;0.25;;;11.50;1.00;;;;;;5020630;28;20439;-73
2023/05/06 00:24:54;;;;;;;0.30;0.30;;;11.40;1.00;;;;;;5011503;28;20826;-73
2023/05/06 00:27:23;;;;;;;0.50;0.30;;;11.30;1.00;;;;;;5017757;28;20440;-74
2023/05/06 00:29:50;;;;;;;0.25;0.25;;;11.30;1.00;;;;;;5012029;28;20426;-73
2023/05/06 00:32:17;;;;;;;0.40;0.40;;;11.10;1.00;;;;;;5015041;28;20495;-73
2023/05/06 00:34:43;;;;;;;0.32;0.32;;;11.00;1.00;;;;;;5023517;28;20434;-74
2023/05/06 00:37:10;;;;;;;0.32;0.32;;;10.90;1.00;;;;;;5021172;28;20441;-74
2023/05/06 00:39:37;;;;;;;0.38;0.38;;;10.80;1.00;;;;;;5010065;28;20430;-74
2023/05/06 00:42:03;;;;;;;1.30;0.25;;;10.80;1.00;;;;;;5019023;28;20447;-74
2023/05/06 00:44:33;;;;;;;0.20;0.20;;;10.60;1.00;;;;;;5020756;28;20534;-74
2023/05/06 00:47:00;;;;;;;1.02;0.40;;;10.50;1.00;;;;;;5023085;28;20504;-74
2023/05/06 00:49:28;;;;;;;0.20;0.20;;;10.60;27.80;;;;;;5020622;28;20437;-74
2023/05/06 00:51:56;;;;;;;0.20;0.20;;;10.60;97.30;;;;;;5021923;28;20520;-74
2023/05/06 00:54:28;;;;;;;0.35;0.35;;;10.60;99.90;;;;;;5022577;28;20943;-74
2023/05/06 00:56:55;;;;;;;0.57;0.50;;;10.50;99.90;;;;;;5025786;28;20446;-74
2023/05/06 00:59:24;;;;;;;0.20;0.20;;;10.50;99.90;;;;;;5024408;28;20439;-74
2023/05/06 01:01:52;;;;;;;0.30;0.23;;;10.30;99.90;;;;;;5018672;28;20497;-74
2023/05/06 01:04:21;;;;;;;0.30;0.30;;;10.40;99.90;;;;;;5023859;28;20434;-74
2023/05/06 01:07:02;;;;;;;0.20;0.20;;;10.40;99.90;;;;;;5021849;28;20480;-74
2023/05/06 01:09:56;;;;;;;0.25;0.25;;;10.30;99.90;;;;;;5024139;28;20442;-74
2023/05/06 01:12:32;;;;;;;0.13;0.13;;;10.20;99.90;;;;;;5017582;28;20484;-74
2023/05/06 01:15:20;;;;;;;0.40;0.40;;;10.10;99.90;;;;;;5015906;28;20431;-74
2023/05/06 01:17:50;;;;;;;0.30;0.30;;;10.00;99.90;;;;;;5027792;28;20438;-74
2023/05/06 01:20:20;;;;;;;0.30;0.30;;;9.90;99.90;;;;;;5025199;28;20498;-74
2023/05/06 01:22:48;;;;;;;0.30;0.30;;;9.80;99.90;;;;;;5016846;28;20430;-75
2023/05/06 01:25:20;;;;;;;0.25;0.25;;;9.70;99.90;;;;;;5025111;28;20435;-75
2023/05/06 01:27:47;;;;;;;0.70;0.40;;;9.60;99.90;;;;;;5025845;28;20845;-75
2023/05/06 01:30:17;;;;;;;0.37;0.20;;;9.50;99.90;;;;;;5023796;28;20965;-75
2023/05/06 01:32:57;;;;;;;0.30;0.30;;;9.40;99.90;;;;;;5023050;28;20434;-74
2023/05/06 01:35:48;;;;;;;0.13;0.13;;;9.40;99.90;;;;;;5020091;28;20440;-74
2023/05/06 01:38:26;;;;;;;0.30;0.30;;;9.40;99.90;;;;;;5023124;28;20492;-74
2023/05/06 01:40:56;;;;;;;0.40;0.40;;;9.40;99.90;;;;;;5021238;28;20913;-74
2023/05/06 01:43:28;;;;;;;0.30;0.30;;;9.30;99.90;;;;;;5017017;28;21070;-74
2023/05/06 01:45:56;;;;;;;0.47;0.47;;;9.30;99.90;;;;;;5022537;28;20492;-74
2023/05/06 01:48:30;;;;;;;0.20;0.20;;;9.20;99.90;;;;;;5020621;28;20463;-74
2023/05/06 01:50:57;;;;;;;0.30;0.30;;;9.10;99.90;;;;;;5020328;28;20431;-74
2023/05/06 01:53:24;;;;;;;0.25;0.25;;;9.10;99.90;;;;;;5016518;28;20883;-73
2023/05/06 01:55:53;;;;;;;0.43;0.43;;;9.10;99.90;;;;;;5019909;28;20566;-74
2023/05/06 01:58:20;;;;;;;0.80;0.50;;;8.90;99.90;;;;;;5018729;28;20442;-74
2023/05/06 02:00:49;;;;;;;0.40;0.40;;;9.00;99.90;;;;;;5015190;28;20535;-74
2023/05/06 02:03:16;;;;;;;0.30;0.30;;;9.00;99.90;;;;;;5018672;28;20436;-74
2023/05/06 02:05:43;;;;;;;0.20;0.20;;;8.90;99.90;;;;;;5019581;28;20504;-74
2023/05/06 02:08:09;;;;;;;0.60;0.60;;;8.90;99.90;;;;;;5023139;28;20430;-74
2023/05/06 02:10:36;;;;;;;0.45;0.45;;;8.90;99.90;;;;;;5023699;28;20449;-73
2023/05/06 02:13:03;;;;;;;1.10;0.22;;;8.80;99.90;;;;;;5016814;28;20482;-74
2023/05/06 02:15:30;;;;;;;0.30;0.30;;;8.90;99.90;;;;;;5023407;28;20466;-74
2023/05/06 02:17:58;;;;;;;0.30;0.30;;;8.90;99.90;;;;;;5020572;28;20925;-73
2023/05/06 02:20:25;;;;;;;0.60;0.30;;;8.80;99.90;;;;;;5018416;28;20444;-74
2023/05/06 02:22:55;;;;;;;0.97;0.97;;;8.80;99.90;;;;;;5030842;28;20446;-74
2023/05/06 02:25:25;;;;;;;0.20;0.20;;;8.70;99.90;;;;;;5015273;28;20509;-74
2023/05/06 02:27:52;;;;;;;1.05;0.38;;;8.60;99.90;;;;;;5023543;28;20522;-74
2023/05/06 02:30:20;;;;;;;0.30;0.30;;;8.60;99.90;;;;;;5020107;28;20438;-74
2023/05/06 02:32:47;;;;;;;0.73;0.73;;;8.60;99.90;;;;;;5015972;28;20965;-74
2023/05/06 02:35:14;;;;;;;0.52;0.52;;;8.60;99.90;;;;;;5009337;28;20436;-73
2023/05/06 02:37:41;;;;;;;0.28;0.28;;;8.60;99.90;;;;;;5021904;28;20456;-74
2023/05/06 02:40:08;;;;;;;0.40;0.40;;;8.60;99.90;;;;;;5016732;28;20429;-74
2023/05/06 02:42:35;;;;;;;0.30;0.30;;;8.60;99.90;;;;;;5021385;28;20430;-74
2023/05/06 02:45:02;;;;;;;0.60;0.60;;;8.50;99.90;;;;;;5021281;28;20489;-74
2023/05/06 02:47:29;;;;;;;0.20;0.20;;;8.50;99.90;;;;;;5020199;28;20456;-74
2023/05/06 02:49:58;;;;;;;0.40;0.40;;;8.50;99.90;;;;;;5012673;28;20489;-73
2023/05/06 02:52:25;;;;;;;0.77;0.47;;;8.40;99.90;;;;;;5020956;28;20516;-75
2023/05/06 02:54:52;;;;;;;0.32;0.32;;;8.20;99.90;;;;;;5021187;28;20442;-74
2023/05/06 02:57:19;;;;;;;0.40;0.40;;;8.20;99.90;;;;;;5015690;28;20465;-73
2023/05/06 02:59:45;;;;;;;2.20;0.50;;;8.20;99.90;;;;;;5014286;28;20429;-74
2023/05/06 03:02:12;;;;;;;0.60;0.60;;;8.20;99.90;;;;;;5019763;28;20508;-74
2023/05/06 03:04:40;;;;;;;0.60;0.50;;;8.20;99.90;;;;;;5025189;28;20431;-74
2023/05/06 03:07:07;;;;;;;0.57;0.53;;;8.10;99.90;;;;;;5019245;28;21775;-74
2023/05/06 03:09:34;;;;;;;0.75;0.50;;;8.10;99.90;;;;;;5025197;28;20430;-74
2023/05/06 03:12:12;;;;;;;0.70;0.70;;;8.10;99.90;;;;;;5018854;28;20435;-74
2023/05/06 03:14:39;;;;;;;0.57;0.57;;;8.00;99.90;;;;;;5020562;28;20534;-74
2023/05/06 03:17:05;;;;;;;0.47;0.47;;;7.90;99.90;;;;;;5020023;28;20925;-74
2023/05/06 03:19:32;;;;;;;0.52;0.52;;;7.90;99.90;;;;;;5020276;28;20436;-74
2023/05/06 03:21:59;;;;;;;0.20;0.20;;;7.90;99.90;;;;;;5013626;28;20953;-73
2023/05/06 03:24:25;;;;;;;0.30;0.30;;;7.90;99.90;;;;;;5020661;28;20492;-74
2023/05/06 03:26:52;;;;;;;0.40;0.40;;;7.80;99.90;;;;;;5022116;28;20437;-74
2023/05/06 03:29:19;;;;;;;0.22;0.22;;;7.90;99.90;;;;;;5020763;28;20427;-73
2023/05/06 03:31:48;;;;;;;0.20;0.20;;;7.90;99.90;;;;;;5021670;28;20918;-74
2023/05/06 03:34:15;;;;;;;0.30;0.30;;;8.10;99.90;;;;;;5011349;28;20437;-74
2023/05/06 03:36:42;;;;;;;0.95;0.63;;;8.00;99.90;;;;;;5010137;28;20441;-74
2023/05/06 03:39:16;;;;;;;0.30;0.30;;;8.00;99.90;;;;;;5015128;28;20443;-74
2023/05/06 03:41:43;;;;;;;0.40;0.40;;;8.00;99.90;;;;;;5020331;28;20508;-74
2023/05/06 03:44:10;;;;;;;0.30;0.30;;;7.90;99.90;;;;;;5017870;28;20431;-74
2023/05/06 03:46:37;;;;;;;0.40;0.35;;;7.80;99.90;;;;;;5025169;28;20434;-74
2023/05/06 03:49:04;;;;;;;0.30;0.30;;;7.70;99.90;;;;;;5020405;28;20441;-74
2023/05/06 03:51:31;;;;;;;0.37;0.37;;;7.70;99.90;;;;;;5025783;28;20443;-74
2023/05/06 03:53:58;;;;;;;0.40;0.40;;;7.90;99.90;;;;;;5019577;28;20446;-74
2023/05/06 03:56:25;;;;;;;0.40;0.40;;;7.90;99.90;;;;;;5010797;28;20939;-73
2023/05/06 03:58:53;;;;;;;0.40;0.40;;;7.90;99.90;;;;;;5014213;28;20489;-74
2023/05/06 04:01:20;;;;;;;0.93;0.30;;;7.90;99.90;;;;;;5010369;28;20443;-74
2023/05/06 04:03:47;;;;;;;0.50;0.50;;;7.80;99.90;;;;;;5018316;28;20433;-73
2023/05/06 04:06:17;;;;;;;3.30;0.70;;;7.90;99.90;;;;;;5018452;28;20429;-74
2023/05/06 04:08:43;;;;;;;2.00;0.65;;;7.90;99.90;;;;;;5022075;28;20442;-74
2023/05/06 04:11:13;;;;;;;5.90;0.65;;;7.80;99.90;;;;;;5018732;28;20518;-74
2023/05/06 04:13:39;;;;;;;0.65;0.65;;;7.80;99.90;;;;;;5024526;28;20435;-74
2023/05/06 04:16:06;;;;;;;0.25;0.25;;;7.90;99.90;;;;;;5025209;28;20473;-74
2023/05/06 04:18:33;;;;;;;0.50;0.50;;;7.90;99.90;;;;;;5024910;28;20438;-74
2023/05/06 04:21:00;;;;;;;0.40;0.40;;;7.90;99.90;;;;;;5016560;28;20457;-74
2023/05/06 04:23:26;;;;;;;0.70;0.50;;;8.00;99.90;;;;;;5030978;28;20439;-74
2023/05/06 04:25:53;;;;;;;0.20;0.20;;;8.10;99.90;;;;;;5029468;28;20906;-74
2023/05/06 04:28:20;;;;;;;0.30;0.30;;;8.20;99.90;;;;;;5028843;28;20802;-74
2023/05/06 04:30:47;;;;;;;1.30;0.60;;;8.40;99.90;;;;;;5026693;28;20442;-74
2023/05/06 04:33:14;;;;;;;0.40;0.40;;;8.50;99.90;;;;;;5026631;28;20423;-74
2023/05/06 04:35:52;;;;;;;0.32;0.32;;;8.60;99.90;;;;;;5024128;28;20462;-74
2023/05/06 04:38:25;;;;;;;0.40;0.40;;;8.70;99.90;;;;;;5023119;28;20434;-74
2023/05/06 04:40:52;;;;;;;0.40;0.40;;;8.90;99.90;;;;;;5026427;28;21029;-74
2023/05/06 04:43:19;;;;;;;0.30;0.30;;;9.00;99.90;;;;;;5021236;28;20781;-74
2023/05/06 04:45:49;;;;;;;3.78;0.32;;;9.10;99.90;;;;;;5020631;28;20441;-74
2023/05/06 04:48:17;;;;;;;0.80;0.80;;;9.10;99.90;;;;;;5024140;28;20526;-73
2023/05/06 04:50:45;;;;;;;0.55;0.55;;;9.20;99.90;;;;;;5019503;28;20519;-73
2023/05/06 04:53:12;;;;;;;0.63;0.63;;;9.30;99.90;;;;;;5022924;28;20675;-73
2023/05/06 04:55:39;;;;;;;0.45;0.45;;;9.40;99.90;;;;;;5023559;28;20442;-73
2023/05/06 04:58:06;;;;;;;0.43;0.43;;;9.40;99.90;;;;;;5039920;28;20450;-73
2023/05/06 05:00:33;;;;;;;1.00;0.60;;;9.50;99.90;;;;;;5027585;28;20800;-73
2023/05/06 05:03:00;;;;;;;1.17;0.60;;;9.50;99.90;;;;;;5025295;28;20546;-73
2023/05/06 05:05:28;;;;;;;0.52;0.52;;;9.60;99.90;;;;;;5021184;28;20439;-73
2023/05/06 05:07:55;;;;;;;0.70;0.70;;;9.80;99.90;;;;;;5025923;28;20422;-73
2023/05/06 05:10:22;;;;;;;0.40;0.40;;;10.00;99.90;;;;;;5023114;28;20434;-74
2023/05/06 05:12:48;;;;;;;0.80;0.70;;;10.30;99.90;;;;;;5021228;28;20980;-74
2023/05/06 05:15:15;;;;;;;0.40;0.40;;;10.60;99.90;;;;;;5021284;28;20848;-74
2023/05/06 05:17:42;;;;;;;0.55;0.40;;;11.20;99.90;;;;;;5026802;28;20977;-74
2023/05/06 05:20:11;;;;;;;1.52;0.60;;;11.90;99.90;;;;;;5026437;28;20852;-74
2023/05/06 05:22:38;;;;;;;0.30;0.30;;;12.80;99.90;;;;;;5023117;28;20435;-73
2023/05/06 05:25:05;;;;;;;0.40;0.40;;;13.20;99.90;;;;;;5013980;28;20805;-73
2023/05/06 05:27:35;;;;;;;0.50;0.50;;;14.00;99.90;;;;;;5019342;28;20437;-74
2023/05/06 05:30:02;;;;;;;1.10;0.82;;;14.60;99.90;;;;;;5016265;28;20439;-73
2023/05/06 05:32:29;;;;;;;0.50;0.50;;;14.90;99.90;;;;;;5022095;28;20518;-74
2023/05/06 05:34:56;;;;;;;0.60;0.60;;;15.40;99.90;;;;;;5024124;28;20941;-74
2023/05/06 05:37:22;;;;;;;0.80;0.80;;;16.10;99.90;;;;;;5015877;28;20538;-74
2023/05/06 05:39:51;;;;;;;0.43;0.43;;;16.60;99.90;;;;;;5021733;28;20482;-73
2023/05/06 05:42:18;;;;;;;0.60;0.60;;;17.10;99.90;;;;;;5021900;28;20432;-74
2023/05/06 05:44:45;;;;;;;0.70;0.60;;;17.70;99.90;;;;;;5020737;28;20431;-73
2023/05/06 05:47:14;;;;;;;0.50;0.50;;;18.10;99.90;;;;;;5018816;28;20434;-74
2023/05/06 05:49:41;;;;;;;0.50;0.50;;;18.20;99.90;;;;;;5021429;28;20917;-73
2023/05/06 05:52:09;;;;;;;0.30;0.30;;;18.10;99.90;;;;;;5024307;28;20435;-73
2023/05/06 05:54:36;;;;;;;0.35;0.35;;;18.10;99.90;;;;;;5018604;28;20506;-74
2023/05/06 05:57:02;;;;;;;0.60;0.60;;;18.30;99.90;;;;;;5024099;28;20909;-74
2023/05/06 05:59:30;;;;;;;2.10;0.40;;;18.60;99.90;;;;;;5016664;28;20517;-74
2023/05/06 06:01:57;;;;;;;0.30;0.30;;;18.90;99.90;;;;;;5024767;28;20427;-74
2023/05/06 06:04:24;;;;;;;0.40;0.40;;;19.00;99.90;;;;;;5021049;28;20432;-74
2023/05/06 06:06:51;;;;;;;0.40;0.40;;;19.40;99.90;;;;;;5021292;28;20427;-74
2023/05/06 06:09:18;;;;;;;0.40;0.40;;;19.50;99.90;;;;;;5022913;28;20441;-74
2023/05/06 06:11:45;;;;;;;0.50;0.43;;;19.90;99.90;;;;;;5024253;28;20449;-73
2023/05/06 06:14:13;;;;;;;1.02;0.70;;;19.80;99.90;;;;;;5020684;28;20434;-74
2023/05/06 06:16:40;;;;;;;0.30;0.30;;;20.40;99.90;;;;;;5021725;28;20427;-74
2023/05/06 06:19:07;;;;;;;1.90;0.50;;;20.50;99.90;;;;;;5024331;28;20435;-74
2023/05/06 06:21:37;;;;;;;0.50;0.50;;;20.80;99.90;;;;;;5024141;28;20443;-75
2023/05/06 06:24:04;;;;;;;0.43;0.43;;;20.70;99.90;;;;;;5017520;28;20437;-75
2023/05/06 06:26:30;;;;;;;0.40;0.40;;;20.50;99.90;;;;;;5022150;28;20941;-74
2023/05/06 06:29:00;;;;;;;0.40;0.40;;;20.60;99.90;;;;;;5020595;28;20430;-74
2023/05/06 06:31:28;;;;;;;0.50;0.50;;;21.00;99.90;;;;;;5022155;28;20467;-75
2023/05/06 06:33:57;;;;;;;0.50;0.50;;;21.40;99.90;;;;;;5015934;28;20431;-75
2023/05/06 06:36:23;;;;;;;0.30;0.30;;;21.70;99.90;;;;;;5022000;28;20992;-75
2023/05/06 06:38:50;;;;;;;0.40;0.40;;;22.00;99.90;;;;;;5019713;28;20461;-75
2023/05/06 06:41:17;;;;;;;0.32;0.32;;;22.10;99.90;;;;;;5016410;28;20620;-75
2023/05/06 06:43:43;;;;;;;0.70;0.50;;;21.90;99.90;;;;;;5017376;28;20836;-75
2023/05/06 06:46:10;;;;;;;0.65;0.45;;;22.10;99.90;;;;;;5016720;28;20436;-75
2023/05/06 06:48:40;;;;;;;0.40;0.40;;;21.10;99.90;;;;;;5016461;28;20441;-75
2023/05/06 06:51:07;;;;;;;0.40;0.40;;;21.60;99.90;;;;;;5018720;28;20438;-75
2023/05/06 06:53:34;;;;;;;0.30;0.30;;;21.40;99.90;;;;;;5018745;28;20466;-75
2023/05/06 06:56:00;;;;;;;0.27;0.27;;;21.40;99.90;;;;;;5007039;28;20496;-74
2023/05/06 06:58:27;;;;;;;0.22;0.22;;;21.40;99.90;;;;;;5016657;28;20436;-74
2023/05/06 07:00:54;;;;;;;0.30;0.30;;;22.20;99.90;;;;;;5020413;28;20506;-74
2023/05/06 07:03:23;;;;;;;0.80;0.80;;;22.50;99.90;;;;;;5021029;28;20431;-75
2023/05/06 07:05:52;;;;;;;0.30;0.30;;;22.30;99.90;;;;;;5017999;28;20514;-74
2023/05/06 07:08:20;;;;;;;0.55;0.45;;;21.60;99.90;;;;;;5016968;28;20438;-74
2023/05/06 07:10:47;;;;;;;0.80;0.50;;;21.80;99.90;;;;;;5020974;28;20449;-74
2023/05/06 07:13:14;;;;;;;0.25;0.25;;;22.10;99.90;;;;;;5014361;28;20655;-75
2023/05/06 07:15:41;;;;;;;0.20;0.20;;;22.30;99.90;;;;;;5013302;28;20446;-75
2023/05/06 07:18:08;;;;;;;0.30;0.30;;;22.00;99.90;;;;;;5017168;28;20447;-74
2023/05/06 07:20:35;;;;;;;0.30;0.30;;;21.70;99.90;;;;;;5016770;28;20684;-74
2023/05/06 07:23:02;;;;;;;0.40;0.40;;;22.00;99.90;;;;;;5017681;28;20430;-74
2023/05/06 07:25:30;;;;;;;0.30;0.30;;;21.80;99.90;;;;;;5020033;28;20432;-73
2023/05/06 07:27:57;;;;;;;0.40;0.40;;;22.00;99.90;;;;;;5016415;28;20452;-74
2023/05/06 07:30:26;;;;;;;0.40;0.40;;;22.30;99.90;;;;;;5017841;28;20471;-74
2023/05/06 07:32:53;;;;;;;0.30;0.30;;;21.80;99.90;;;;;;5022561;28;20471;-74
2023/05/06 07:35:20;;;;;;;0.47;0.45;;;21.50;99.90;;;;;;5016571;28;20449;-74
2023/05/06 07:37:49;;;;;;;0.50;0.50;;;21.20;99.90;;;;;;5020451;28;20515;-74
2023/05/06 07:40:16;;;;;;;1.40;0.50;;;21.30;99.90;;;;;;5018284;28;20435;-74
2023/05/06 07:42:50;;;;;;;0.55;0.55;;;21.60;99.90;;;;;;5031471;28;20466;-74
2023/05/06 07:45:18;;;;;;;0.20;0.20;;;22.20;99.90;;;;;;5015681;28;20423;-75
2023/05/06 07:47:48;;;;;;;1.00;0.43;;;22.70;99.90;;;;;;5021580;28;20562;-75
2023/05/06 07:50:15;;;;;;;0.43;0.43;;;23.40;99.90;;;;;;5020310;28;20488;-75
2023/05/06 07:52:42;;;;;;;0.40;0.40;;;23.30;99.90;;;;;;5016103;28;20435;-75
2023/05/06 07:55:09;;;;;;;0.50;0.50;;;22.90;99.90;;;;;;5019593;28;20438;-74
2023/05/06 07:57:38;;;;;;;0.30;0.30;;;23.10;99.90;;;;;;5012598;28;20520;-75
2023/05/06 08:00:06;;;;;;;0.40;0.40;;;23.30;99.90;;;;;;5029916;28;20430;-74
2023/05/06 08:02:33;;;;;;;0.30;0.30;;;23.20;99.90;;;;;;5019587;28;20529;-74
2023/05/06 08:05:00;;;;;;;0.40;0.40;;;22.40;99.90;;;;;;5022159;28;20427;-74
2023/05/06 08:07:27;;;;;;;0.32;0.32;;;22.10;99.90;;;;;;5018617;28;20430;-74
2023/05/06 08:09:55;;;;;;;0.40;0.40;;;22.60;99.90;;;;;;5010928;28;20483;-74
2023/05/06 08:12:22;;;;;;;2.30;0.60;;;22.70;99.90;;;;;;5018025;28;21007;-74
2023/05/06 08:14:49;;;;;;;0.40;0.40;;;23.00;99.90;;;;;;5017747;28;20535;-74
2023/05/06 08:17:15;;;;;;;0.30;0.30;;;22.80;99.90;;;;;;5014599;28;20435;-74
2023/05/06 08:19:43;;;;;;;0.75;0.50;;;23.10;99.90;;;;;;5015450;28;20466;-74
2023/05/06 08:22:09;;;;;;;0.60;0.40;;;23.10;99.90;;;;;;5019690;28;20445;-74
2023/05/06 08:24:36;;;;;;;0.50;0.50;;;23.10;99.90;;;;;;5021110;28;20431;-74
2023/05/06 08:27:03;;;;;;;1.50;0.50;;;23.60;99.90;;;;;;5020435;28;20435;-74
2023/05/06 08:29:30;;;;;;;0.40;0.40;;;24.10;99.90;;;;;;5015504;28;20435;-74
2023/05/06 08:31:57;;;;;;;0.30;0.30;;;24.40;99.90;;;;;;5020291;28;20441;-74
2023/05/06 08:34:24;;;;;;;0.38;0.38;;;24.20;99.90;;;;;;5017163;28;20514;-74
2023/05/06 08:36:51;;;;;;;0.68;0.50;;;24.10;99.90;;;;;;5019701;28;20435;-74
2023/05/06 08:39:18;;;;;;;0.60;0.40;;;23.90;98.90;;;;;;5020724;28;20423;-74
2023/05/06 08:41:49;;;;;;;0.20;0.20;;;23.30;99.10;;;;;;5019020;28;20433;-74
2023/05/06 08:44:18;;;;;;;0.20;0.20;;;22.40;98.10;;;;;;5018709;28;20443;-74
2023/05/06 08:46:45;;;;;;;0.40;0.40;;;22.70;99.80;;;;;;5019192;28;20438;-74
2023/05/06 08:49:12;;;;;;;0.50;0.50;;;23.30;99.90;;;;;;5018155;28;20434;-74
2023/05/06 08:51:42;;;;;;;0.50;0.50;;;23.20;99.90;;;;;;5017854;28;20438;-74
2023/05/06 08:54:11;;;;;;;0.43;0.43;;;23.10;99.90;;;;;;5016107;28;20453;-74
2023/05/06 08:56:42;;;;;;;0.33;0.33;;;23.60;99.90;;;;;;5020329;28;20434;-74
2023/05/06 08:59:09;;;;;;;0.40;0.40;;;24.30;99.90;;;;;;5030710;28;20442;-74
2023/05/06 09:01:36;;;;;;;0.60;0.50;;;24.40;99.80;;;;;;5022481;28;20794;-74
2023/05/06 09:04:05;;;;;;;0.50;0.30;;;24.20;99.10;;;;;;5020812;28;20438;-74
2023/05/06 09:06:33;;;;;;;0.25;0.25;;;24.50;98.50;;;;;;5022844;28;20518;-73
2023/05/06 09:08:59;;;;;;;0.40;0.40;;;23.90;97.90;;;;;;5020422;28;23967;-73
2023/05/06 09:11:31;;;;;;;0.30;0.30;;;22.60;98.00;;;;;;5021535;28;20450;-74
2023/05/06 09:14:14;;;;;;;0.30;0.30;;;23.30;98.40;;;;;;5023683;28;20439;-74
2023/05/06 09:16:46;;;;;;;0.30;0.30;;;23.90;99.70;;;;;;5017804;28;20937;-74
2023/05/06 09:19:14;;;;;;;0.28;0.28;;;24.60;99.30;;;;;;5019566;28;20439;-73
2023/05/06 09:21:43;;;;;;;0.40;0.40;;;25.10;98.70;;;;;;5019307;28;20431;-74
2023/05/06 09:24:12;;;;;;;0.30;0.30;;;25.20;97.20;;;;;;5022862;28;20435;-74
2023/05/06 09:26:41;;;;;;;0.20;0.20;;;24.40;96.50;;;;;;5020057;28;20438;-74
2023/05/06 09:29:09;;;;;;;1.33;0.28;;;25.00;97.40;;;;;;5022391;28;20431;-75
2023/05/06 09:31:42;;;;;;;0.30;0.30;;;24.30;96.40;;;;;;5023554;28;20466;-74
2023/05/06 09:34:09;;;;;;;0.30;0.30;;;24.20;97.20;;;;;;5025601;28;20493;-74
2023/05/06 09:36:36;;;;;;;0.43;0.30;;;24.60;98.10;;;;;;5023063;28;20496;-74
2023/05/06 09:39:04;;;;;;;0.50;0.40;;;24.50;96.50;;;;;;5018500;28;20454;-74
2023/05/06 09:41:32;;;;;;;0.20;0.20;;;24.00;95.90;;;;;;5016782;28;20518;-74
2023/05/06 09:43:59;;;;;;;0.40;0.40;;;23.80;95.20;;;;;;5020653;28;20439;-73
2023/05/06 09:46:26;;;;;;;0.20;0.20;;;23.40;96.20;;;;;;5014746;28;20561;-74
2023/05/06 09:48:55;;;;;;;0.20;0.20;;;23.90;97.10;;;;;;5019706;28;20983;-73
2023/05/06 09:51:22;;;;;;;0.20;0.20;;;24.10;96.70;;;;;;5020991;28;20481;-74
2023/05/06 09:53:51;;;;;;;0.20;0.20;;;24.40;96.40;;;;;;5019796;28;20446;-74
2023/05/06 09:56:20;;;;;;;0.28;0.28;;;24.90;95.80;;;;;;5019569;28;21148;-74
2023/05/06 09:58:48;;;;;;;0.30;0.30;;;25.30;95.60;;;;;;5018255;28;20431;-75
2023/05/06 10:01:16;;;;;;;0.20;0.20;;;25.50;96.30;;;;;;5014465;28;20442;-74
2023/05/06 10:04:03;;;;;;;0.30;0.30;;;24.90;94.50;;;;;;5015422;28;20439;-74
2023/05/06 10:06:34;;;;;;;0.37;0.30;;;25.10;94.40;;;;;;5022856;28;20557;-74
2023/05/06 10:09:01;;;;;;;0.40;0.40;;;24.40;93.80;;;;;;5020622;28;20447;-74
2023/05/06 10:11:30;;;;;;;0.60;0.60;;;24.70;94.60;;;;;;5014255;28;20435;-74
2023/05/06 10:14:00;;;;;;;1.20;0.40;;;24.80;94.70;;;;;;5012037;28;20483;-75
2023/05/06 10:16:30;;;;;;;0.28;0.28;;;24.70;94.10;;;;;;5019667;28;20442;-74
2023/05/06 10:18:58;;;;;;;0.50;0.35;;;24.80;94.30;;;;;;5013232;28;20430;-75
2023/05/06 10:21:31;;;;;;;0.45;0.45;;;24.20;93.60;;;;;;5012944;28;20429;-75
2023/05/06 10:24:06;;;;;;;0.30;0.30;;;23.60;94.70;;;;;;5014382;28;20431;-76
2023/05/06 10:26:36;;;;;;;0.20;0.20;;;23.70;94.80;;;;;;5016108;28;20763;-75
2023/05/06 10:29:07;;;;;;;0.37;0.37;;;24.60;95.10;;;;;;5021244;28;20509;-74
2023/05/06 10:31:37;;;;;;;0.30;0.30;;;25.00;94.00;;;;;;5012413;28;21086;-74
2023/05/06 10:34:07;;;;;;;0.20;0.20;;;25.50;93.90;;;;;;5019528;28;20496;-74
2023/05/06 10:36:36;;;;;;;2.53;0.38;;;25.70;93.30;;;;;;5020098;28;20466;-74
2023/05/06 10:39:03;;;;;;;0.30;0.30;;;25.60;92.80;;;;;;5016832;28;20438;-74
2023/05/06 10:41:30;;;;;;;0.40;0.40;;;25.60;92.50;;;;;;5019196;28;20457;-75
2023/05/06 10:43:58;;;;;;;0.20;0.20;;;25.80;92.60;;;;;;5021887;28;20430;-75
2023/05/06 10:46:27;;;;;;;0.40;0.40;;;25.00;92.60;;;;;;5016128;28;20445;-74
2023/05/06 10:49:03;;;;;;;0.30;0.30;;;24.10;92.90;;;;;;5015417;28;20525;-75
2023/05/06 10:51:40;;;;;;;0.77;0.50;;;24.70;94.10;;;;;;5012672;28;21257;-75
2023/05/06 10:54:16;;;;;;;0.40;0.40;;;24.60;93.50;;;;;;5017976;28;20431;-74
2023/05/06 10:56:49;;;;;;;0.20;0.20;;;24.40;93.00;;;;;;5033615;28;20434;-75
2023/05/06 10:59:22;;;;;;;0.30;0.30;;;24.90;94.10;;;;;;5013314;28;20608;-74
2023/05/06 11:02:04;;;;;;;0.20;0.20;;;25.20;93.30;;;;;;5022111;28;21047;-74
2023/05/06 11:04:34;;;;;;;0.20;0.20;;;25.80;93.20;;;;;;5015823;28;20436;-75
2023/05/06 11:07:13;;;;;;;0.23;0.23;;;25.30;92.60;;;;;;5015570;28;20450;-75
2023/05/06 11:10:01;;;;;;;0.20;0.20;;;25.70;93.00;;;;;;5019009;28;20441;-75
2023/05/06 11:13:18;;;;;;;0.80;0.40;;;25.90;92.40;;;;;;5024755;28;20513;-75
2023/05/06 11:15:45;;;;;;;0.30;0.30;;;26.60;92.70;;;;;;4986673;28;20440;-75
2023/05/06 11:18:27;;;;;;;0.30;0.30;;;26.90;91.80;;;;;;5014891;28;20431;-75
2023/05/06 11:21:03;;;;;;;0.50;0.47;;;26.60;91.50;;;;;;5025626;28;20986;-75
2023/05/06 11:23:48;;;;;;;0.55;0.40;;;25.30;91.10;;;;;;5023574;28;20929;-76
2023/05/06 11:26:15;;;;;;;0.32;0.32;;;25.50;92.00;;;;;;5029131;28;20900;-74
2023/05/06 11:28:43;;;;;;;0.40;0.40;;;26.20;91.90;;;;;;5012521;28;20506;-74
2023/05/06 11:31:11;;;;;;;0.90;0.30;;;26.30;91.40;;;;;;5015256;28;20470;-75
2023/05/06 11:33:45;;;;;;;0.30;0.30;;;26.60;91.10;;;;;;5035713;28;21222;-75
2023/05/06 11:36:20;;;;;;;0.30;0.30;;;25.90;91.10;;;;;;5022726;28;20434;-74
2023/05/06 11:38:55;;;;;;;0.20;0.20;;;25.20;91.60;;;;;;5017268;28;20518;-74
2023/05/06 11:41:22;;;;;;;0.37;0.37;;;25.00;91.80;;;;;;5022684;28;20435;-73
2023/05/06 11:43:50;;;;;;;0.30;0.30;;;24.20;92.10;;;;;;5021969;28;20871;-74
2023/05/06 11:46:18;;;;;;;0.13;0.13;;;24.20;92.80;;;;;;5017675;28;20426;-75
2023/05/06 11:48:45;;;;;;;0.30;0.30;;;25.20;92.80;;;;;;5022103;28;20527;-74
2023/05/06 11:51:12;;;;;;;0.30;0.30;;;25.90;92.30;;;;;;5017108;28;20427;-75
2023/05/06 11:53:39;;;;;;;0.30;0.20;;;25.80;91.40;;;;;;5018900;28;20802;-74
2023/05/06 11:56:06;;;;;;;0.30;0.30;;;26.20;92.10;;;;;;5015902;28;20807;-75
2023/05/06 11:58:33;;;;;;;0.40;0.40;;;26.70;91.70;;;;;;5036458;28;20432;-75
2023/05/06 12:01:02;;;;;;;0.25;0.25;;;26.30;91.00;;;;;;5016514;28;20860;-74
2023/05/06 12:03:30;;;;;;;0.17;0.17;;;26.50;91.50;;;;;;5023430;28;20871;-74
2023/05/06 12:05:58;;;;;;;0.30;0.30;;;26.40;91.80;;;;;;5019422;28;20431;-74
2023/05/06 12:08:31;;;;;;;0.30;0.30;;;25.30;91.60;;;;;;5023825;28;20435;-75
2023/05/06 12:11:00;;;;;;;0.30;0.30;;;25.60;91.80;;;;;;5022274;28;20510;-74
2023/05/06 12:13:28;;;;;;;0.28;0.28;;;25.00;91.90;;;;;;5021661;28;20837;-73
2023/05/06 12:15:57;;;;;;;0.23;0.23;;;25.20;92.20;;;;;;5014869;28;20458;-73
2023/05/06 12:18:24;;;;;;;0.28;0.28;;;25.30;92.30;;;;;;5022945;28;20431;-73
2023/05/06 12:20:55;;;;;;;0.30;0.30;;;25.60;92.40;;;;;;5023005;28;20449;-74
2023/05/06 12:23:22;;;;;;;1.10;0.60;;;25.50;91.10;;;;;;5018760;28;20477;-73
2023/05/06 12:26:03;;;;;;;0.32;0.32;;;25.50;91.70;;;;;;5016782;28;20442;-74
2023/05/06 12:28:31;;;;;;;0.28;0.28;;;25.70;91.40;;;;;;5019577;28;20438;-73
2023/05/06 12:30:59;;;;;;;0.30;0.30;;;25.80;91.10;;;;;;5018702;28;20428;-73
2023/05/06 12:33:26;;;;;;;0.40;0.40;;;25.10;91.20;;;;;;5017564;28;20435;-74
2023/05/06 12:36:06;;;;;;;0.28;0.28;;;24.30;91.60;;;;;;5024010;28;20441;-75
2023/05/06 12:38:33;;;;;;;0.30;0.30;;;24.10;92.00;;;;;;5025410;28;20458;-73
2023/05/06 12:40:59;;;;;;;0.30;0.30;;;24.40;92.20;;;;;;5023960;28;20457;-75
2023/05/06 12:43:31;;;;;;;0.28;0.20;;;24.90;92.20;;;;;;5013644;28;20427;-75
2023/05/06 12:46:08;;;;;;;1.60;0.50;;;25.20;92.30;;;;;;5021900;28;20518;-75
2023/05/06 12:48:35;;;;;;;0.30;0.30;;;25.10;90.90;;;;;;5025617;28;20435;-72
2023/05/06 12:51:16;;;;;;;0.30;0.30;;;25.10;91.20;;;;;;5021577;28;20492;-72
2023/05/06 12:53:43;;;;;;;1.80;0.30;;;25.20;91.40;;;;;;5027479;28;20932;-73
2023/05/06 12:56:10;;;;;;;0.38;0.32;;;25.50;90.90;;;;;;5022469;28;20438;-73
2023/05/06 12:58:38;;;;;;;0.50;0.50;;;26.10;90.60;;;;;;5023267;28;20490;-75